Time;durP1;ratioP1;P1;durP2;ratioP2;P2;SDS_P1;SDS_P2;PMS_P1;PMS_P2;Temp;Humidity;BMP_temperature;BMP_pressure;BME280_temperature;BME280_humidity;BME280_pressure;Samples;Min_cycle;Max_cycle;Signal;HPM_P1;HPM_P2
2021/04/01 00:01:13;;;;;;;17.65;11.75;;;10.20;71.20;;;;;;5075113;28;20398;-69
2021/04/01 00:03:44;;;;;;;18.67;11.25;;;10.20;71.10;;;;;;5087823;28;20043;-69
2021/04/01 00:06:14;;;;;;;18.77;11.75;;;10.20;71.30;;;;;;5081854;28;20028;-69
2021/04/01 00:08:41;;;;;;;18.83;11.38;;;10.20;71.10;;;;;;5070626;28;20029;-70
2021/04/01 00:11:10;;;;;;;22.40;11.95;;;10.20;71.30;;;;;;5089946;28;20389;-69
2021/04/01 00:13:35;;;;;;;16.70;11.38;;;10.10;71.50;;;;;;5077953;28;20012;-70
2021/04/01 00:16:02;;;;;;;24.95;12.85;;;10.00;71.70;;;;;;5082943;28;20023;-66
2021/04/01 00:18:28;;;;;;;21.05;10.82;;;9.90;72.20;;;;;;5084867;28;20032;-69
2021/04/01 00:20:53;;;;;;;17.88;11.20;;;10.00;72.40;;;;;;5076102;28;20027;-69
2021/04/01 00:23:19;;;;;;;22.10;11.23;;;9.90;72.50;;;;;;5088011;28;20059;-69
2021/04/01 00:25:45;;;;;;;20.17;12.60;;;9.70;72.80;;;;;;5072764;28;20024;-69
2021/04/01 00:28:10;;;;;;;17.52;11.07;;;9.70;73.10;;;;;;5080269;28;20099;-69
2021/04/01 00:30:36;;;;;;;19.52;11.52;;;9.80;73.20;;;;;;5078939;28;20063;-69
2021/04/01 00:33:02;;;;;;;18.90;11.45;;;9.60;73.40;;;;;;5088917;28;20485;-68
2021/04/01 00:35:28;;;;;;;19.52;11.32;;;9.60;73.70;;;;;;5076122;28;20023;-69
2021/04/01 00:37:54;;;;;;;22.60;11.57;;;9.60;73.20;;;;;;5084068;28;20645;-68
2021/04/01 00:40:22;;;;;;;19.65;11.25;;;9.60;73.20;;;;;;5083088;28;20024;-70
2021/04/01 00:42:48;;;;;;;16.92;10.13;;;9.60;73.30;;;;;;5076242;28;20024;-69
2021/04/01 00:45:16;;;;;;;17.63;11.18;;;9.50;73.30;;;;;;5088814;28;20085;-69
2021/04/01 00:47:44;;;;;;;14.45;10.13;;;9.50;73.40;;;;;;5076990;28;20024;-69
2021/04/01 00:50:15;;;;;;;17.02;10.05;;;9.50;73.50;;;;;;5082219;28;20028;-67
2021/04/01 00:52:41;;;;;;;20.38;10.80;;;9.50;73.80;;;;;;5070144;28;20521;-69
2021/04/01 00:55:08;;;;;;;20.23;11.27;;;9.50;73.60;;;;;;5087770;28;20060;-68
2021/04/01 00:57:37;;;;;;;18.27;10.90;;;9.50;73.60;;;;;;5075755;28;20012;-69
2021/04/01 01:00:06;;;;;;;18.13;10.38;;;9.30;74.00;;;;;;5081929;28;20464;-69
2021/04/01 01:02:31;;;;;;;19.08;11.35;;;9.30;74.50;;;;;;5083081;28;20398;-70
2021/04/01 01:04:58;;;;;;;17.40;10.38;;;9.20;74.40;;;;;;5076561;28;20089;-70
2021/04/01 01:07:23;;;;;;;18.33;10.77;;;9.20;74.40;;;;;;5074658;28;20175;-70
2021/04/01 01:09:49;;;;;;;18.55;10.77;;;9.10;74.60;;;;;;5065073;28;20106;-70
2021/04/01 01:12:17;;;;;;;15.93;10.07;;;9.10;74.30;;;;;;5081618;28;20025;-69
2021/04/01 01:14:43;;;;;;;15.98;10.63;;;9.00;74.40;;;;;;5085951;28;20417;-70
2021/04/01 01:17:08;;;;;;;15.40;10.07;;;9.00;74.70;;;;;;5073224;28;20024;-70
2021/04/01 01:19:39;;;;;;;18.20;9.85;;;9.10;74.70;;;;;;5087255;28;20474;-70
2021/04/01 01:22:06;;;;;;;16.63;10.40;;;9.00;74.70;;;;;;5075823;28;20012;-68
2021/04/01 01:24:33;;;;;;;21.55;10.77;;;9.00;74.90;;;;;;5077363;28;20030;-69
2021/04/01 01:27:00;;;;;;;15.68;10.52;;;9.00;74.80;;;;;;5074428;28;20500;-68
2021/04/01 01:29:26;;;;;;;19.35;10.98;;;8.90;75.00;;;;;;5058254;28;20107;-68
2021/04/01 01:31:51;;;;;;;16.13;9.43;;;9.00;74.80;;;;;;5083247;28;20103;-70
2021/04/01 01:34:17;;;;;;;16.63;10.10;;;9.00;74.70;;;;;;5076384;28;20098;-69
2021/04/01 01:36:46;;;;;;;20.95;10.38;;;9.00;74.90;;;;;;5084929;28;20028;-69
2021/04/01 01:39:12;;;;;;;14.18;8.95;;;8.90;75.00;;;;;;5073060;28;20039;-68
2021/04/01 01:41:38;;;;;;;16.08;9.77;;;8.80;75.20;;;;;;5086878;28;20331;-69
2021/04/01 01:44:04;;;;;;;16.52;10.13;;;8.80;75.20;;;;;;5080325;28;20024;-70
2021/04/01 01:46:29;;;;;;;15.57;9.80;;;8.80;75.10;;;;;;5078428;28;20517;-69
2021/04/01 01:48:57;;;;;;;17.55;10.18;;;8.80;75.10;;;;;;5086022;28;20044;-69
2021/04/01 01:51:23;;;;;;;17.52;10.43;;;8.80;75.20;;;;;;5071812;28;20375;-69
2021/04/01 01:53:49;;;;;;;17.70;9.68;;;8.70;75.20;;;;;;5078146;28;20013;-69
2021/04/01 01:56:19;;;;;;;13.35;9.43;;;8.70;75.50;;;;;;5080216;28;20498;-69
2021/04/01 01:58:46;;;;;;;14.82;9.32;;;8.70;75.40;;;;;;5084262;28;20115;-69
2021/04/01 02:01:12;;;;;;;19.33;9.80;;;8.60;75.50;;;;;;5074444;28;20074;-69
2021/04/01 02:03:37;;;;;;;17.92;9.80;;;8.50;75.70;;;;;;5086272;28;20028;-70
2021/04/01 02:06:04;;;;;;;20.17;9.77;;;8.50;75.60;;;;;;5083376;28;20482;-69
2021/04/01 02:08:29;;;;;;;16.10;8.38;;;8.60;75.30;;;;;;5091060;28;20035;-69
2021/04/01 02:10:55;;;;;;;23.73;9.68;;;8.80;74.90;;;;;;5079969;28;20024;-69
2021/04/01 02:13:23;;;;;;;17.95;10.15;;;8.80;74.70;;;;;;5092741;28;20021;-68
2021/04/01 02:15:51;;;;;;;19.48;8.90;;;8.70;74.70;;;;;;5081870;28;20023;-69
2021/04/01 02:18:20;;;;;;;13.75;8.15;;;8.60;74.70;;;;;;5084286;28;20088;-69
2021/04/01 02:20:48;;;;;;;13.13;8.23;;;8.60;74.70;;;;;;5090545;28;20020;-69
2021/04/01 02:23:23;;;;;;;17.60;8.80;;;8.50;75.00;;;;;;5077916;28;20333;-70
2021/04/01 02:25:56;;;;;;;15.95;8.57;;;8.50;75.10;;;;;;5089104;28;20017;-70
2021/04/01 02:28:24;;;;;;;11.95;7.65;;;8.40;75.10;;;;;;5074164;28;20197;-70
2021/04/01 02:30:52;;;;;;;20.20;8.27;;;8.40;75.00;;;;;;5088731;28;20124;-69
2021/04/01 02:33:23;;;;;;;15.73;8.02;;;8.40;74.90;;;;;;5078396;28;20035;-70
2021/04/01 02:35:50;;;;;;;19.92;8.65;;;8.40;75.20;;;;;;5083635;28;20012;-69
2021/04/01 02:38:16;;;;;;;13.65;7.85;;;8.40;74.90;;;;;;5084121;28;20028;-69
2021/04/01 02:40:42;;;;;;;13.00;7.70;;;8.30;75.20;;;;;;5088567;28;20028;-68
2021/04/01 02:43:12;;;;;;;15.85;8.15;;;8.30;75.40;;;;;;5078025;28;20039;-69
2021/04/01 02:45:38;;;;;;;15.87;8.20;;;8.30;75.50;;;;;;5091461;28;20024;-69
2021/04/01 02:48:04;;;;;;;15.43;8.18;;;8.20;75.70;;;;;;5086565;28;20097;-69
2021/04/01 02:50:30;;;;;;;17.67;8.35;;;8.30;75.80;;;;;;5086084;28;20021;-68
2021/04/01 02:52:55;;;;;;;13.07;8.10;;;8.20;75.80;;;;;;5078324;28;20039;-69
2021/04/01 02:55:21;;;;;;;17.98;7.70;;;8.20;75.80;;;;;;5090892;28;20049;-69
2021/04/01 02:57:49;;;;;;;14.35;7.75;;;8.20;75.50;;;;;;5081004;28;20482;-68
2021/04/01 03:00:23;;;;;;;13.48;7.10;;;8.10;75.40;;;;;;5085531;28;20023;-69
2021/04/01 03:02:56;;;;;;;13.63;7.18;;;8.10;75.90;;;;;;5090896;28;20433;-68
2021/04/01 03:05:22;;;;;;;15.88;7.40;;;8.10;75.40;;;;;;5081511;28;20016;-69
2021/04/01 03:07:48;;;;;;;15.10;7.60;;;8.20;74.80;;;;;;5091592;28;20024;-70
2021/04/01 03:10:14;;;;;;;11.88;6.88;;;8.30;74.70;;;;;;5086746;28;20028;-69
2021/04/01 03:12:40;;;;;;;12.85;7.10;;;8.20;74.80;;;;;;5090274;28;20020;-69
2021/04/01 03:15:09;;;;;;;16.63;7.22;;;8.20;74.90;;;;;;5079919;28;20025;-69
2021/04/01 03:17:34;;;;;;;14.38;6.82;;;8.20;75.00;;;;;;5089566;28;20035;-69
2021/04/01 03:20:00;;;;;;;497.40;374.40;;;8.20;75.20;;;;;;5085352;28;20020;-69
2021/04/01 03:22:26;;;;;;;397.80;265.75;;;8.30;75.30;;;;;;5083632;28;20099;-69
2021/04/01 03:24:51;;;;;;;17.67;8.90;;;8.10;75.50;;;;;;5088188;28;20020;-69
2021/04/01 03:27:17;;;;;;;12.63;7.40;;;8.10;75.30;;;;;;5074251;28;20029;-69
2021/04/01 03:29:43;;;;;;;16.63;7.43;;;8.10;75.30;;;;;;5080404;28;20119;-69
2021/04/01 03:32:08;;;;;;;17.85;7.30;;;8.00;75.40;;;;;;5083441;28;20412;-69
2021/04/01 03:34:34;;;;;;;722.75;506.15;;;7.90;75.70;;;;;;5078346;28;20020;-69
2021/04/01 03:37:00;;;;;;;17.45;10.63;;;7.90;76.60;;;;;;5090645;28;20028;-69
2021/04/01 03:39:25;;;;;;;16.30;7.50;;;7.90;75.90;;;;;;5076733;28;20031;-69
2021/04/01 03:41:51;;;;;;;14.98;7.20;;;7.80;75.80;;;;;;5082763;28;20024;-70
2021/04/01 03:44:17;;;;;;;14.30;7.03;;;7.80;75.90;;;;;;5086101;28;20030;-69
2021/04/01 03:46:42;;;;;;;17.65;7.18;;;7.80;75.30;;;;;;5090337;28;20035;-69
2021/04/01 03:49:08;;;;;;;14.10;8.18;;;7.90;75.00;;;;;;5079593;28;20521;-69
2021/04/01 03:51:33;;;;;;;16.33;6.78;;;7.90;75.50;;;;;;5081822;28;20023;-69
2021/04/01 03:54:01;;;;;;;14.05;7.00;;;7.90;75.70;;;;;;5085407;28;20055;-69
2021/04/01 03:56:27;;;;;;;11.15;6.45;;;7.80;75.80;;;;;;5084418;28;20077;-69
2021/04/01 03:58:58;;;;;;;16.88;7.22;;;7.70;75.70;;;;;;5077521;28;20025;-69
2021/04/01 04:04:33;;;;;;;11.02;6.70;;;7.70;75.80;;;;;;5082157;28;19915;-69
2021/04/01 04:14:40;;;;;;;15.73;6.28;;;7.80;75.40;;;;;;5085091;28;20027;-69
2021/04/01 04:17:05;;;;;;;15.32;6.97;;;7.70;75.20;;;;;;5074053;28;20024;-69
2021/04/01 04:19:31;;;;;;;15.43;7.65;;;7.80;75.30;;;;;;5088460;28;20123;-70
2021/04/01 04:21:57;;;;;;;13.93;7.18;;;7.90;75.10;;;;;;5080443;28;20016;-68
2021/04/01 04:24:23;;;;;;;16.10;7.30;;;8.00;75.00;;;;;;5081157;28;20394;-68
2021/04/01 04:26:50;;;;;;;20.27;7.32;;;8.00;75.20;;;;;;5071911;28;20024;-68
2021/04/01 04:29:16;;;;;;;19.90;7.72;;;7.90;75.10;;;;;;5081855;28;20467;-69
2021/04/01 04:31:41;;;;;;;17.25;7.18;;;7.90;75.20;;;;;;5069884;28;20025;-68
2021/04/01 04:34:07;;;;;;;16.15;7.68;;;7.90;75.20;;;;;;5077671;28;20067;-69
2021/04/01 04:36:32;;;;;;;11.70;6.93;;;7.90;74.90;;;;;;5082834;28;20481;-70
2021/04/01 04:38:58;;;;;;;13.68;7.13;;;8.00;74.90;;;;;;5075832;28;20502;-68
2021/04/01 04:41:23;;;;;;;12.75;7.15;;;8.00;75.00;;;;;;5087708;28;20027;-69
2021/04/01 04:43:49;;;;;;;15.52;7.00;;;8.00;75.00;;;;;;5079014;28;20020;-69
2021/04/01 04:46:14;;;;;;;9.70;6.18;;;8.00;75.00;;;;;;5081179;28;20032;-68
2021/04/01 04:48:40;;;;;;;13.40;6.50;;;7.90;75.10;;;;;;5085419;28;20038;-68
2021/04/01 04:51:06;;;;;;;18.27;8.20;;;7.90;75.00;;;;;;5074608;28;20035;-68
2021/04/01 04:53:32;;;;;;;14.75;6.57;;;7.90;75.20;;;;;;5076238;28;20086;-69
2021/04/01 04:56:10;;;;;;;16.52;8.90;;;8.00;75.00;;;;;;5084163;28;20025;-68
2021/04/01 05:06:54;;;;;;;12.32;6.78;;;8.40;72.60;;;;;;5082534;28;20566;-70
2021/04/01 05:09:19;;;;;;;11.75;6.28;;;8.60;71.80;;;;;;5088092;28;20027;-69
2021/04/01 05:11:45;;;;;;;11.63;6.40;;;9.00;70.60;;;;;;5077865;28;20016;-70
2021/04/01 05:14:10;;;;;;;11.85;7.03;;;9.60;69.20;;;;;;5081898;28;20017;-69
2021/04/01 05:16:36;;;;;;;11.60;6.30;;;9.80;67.90;;;;;;5061543;28;20037;-70
2021/04/01 05:19:05;;;;;;;13.27;7.18;;;10.10;67.70;;;;;;5056193;28;20029;-69
2021/04/01 05:21:33;;;;;;;16.30;7.10;;;10.20;66.70;;;;;;5055156;28;20244;-69
2021/04/01 05:24:02;;;;;;;14.98;6.60;;;10.20;65.70;;;;;;5059196;28;20457;-70
2021/04/01 05:26:46;;;;;;;12.10;6.63;;;10.60;65.00;;;;;;5055955;28;20502;-70
2021/04/01 05:29:16;;;;;;;13.52;5.85;;;11.10;62.10;;;;;;5057417;28;20036;-69
2021/04/01 05:31:42;;;;;;;15.18;6.43;;;11.50;62.30;;;;;;5054226;28;20493;-70
2021/04/01 05:34:08;;;;;;;9.18;5.43;;;12.40;59.90;;;;;;5057769;28;20032;-68
2021/04/01 05:36:38;;;;;;;10.73;5.90;;;13.10;57.70;;;;;;5060905;28;20066;-70
2021/04/01 05:39:06;;;;;;;11.15;6.05;;;14.20;53.00;;;;;;5061654;28;20037;-69
2021/04/01 05:41:32;;;;;;;9.38;5.15;;;15.20;50.30;;;;;;5058974;28;20509;-70
2021/04/01 05:44:18;;;;;;;12.98;6.40;;;16.00;47.70;;;;;;5058039;28;20052;-70
2021/04/01 05:58:10;;;;;;;16.20;6.57;;;17.50;42.10;;;;;;5057149;28;20383;-69
2021/04/01 06:06:08;;;;;;;22.80;7.25;;;15.60;47.00;;;;;;5059782;28;20027;-70
2021/04/01 06:08:47;;;;;;;19.20;7.53;;;16.40;44.70;;;;;;5054755;28;20758;-70
2021/04/01 06:11:13;;;;;;;13.07;6.38;;;16.30;44.20;;;;;;5062738;28;20021;-70
2021/04/01 06:14:02;;;;;;;18.45;6.70;;;16.60;43.90;;;;;;5055737;28;20028;-70
2021/04/01 06:16:34;;;;;;;17.45;6.97;;;16.70;43.90;;;;;;5076410;28;20028;-70
2021/04/01 06:19:05;;;;;;;24.35;7.05;;;16.90;42.90;;;;;;5074214;28;20036;-68
2021/04/01 06:21:40;;;;;;;22.08;7.22;;;16.70;43.40;;;;;;5059264;28;20055;-69
2021/04/01 06:24:31;;;;;;;15.07;6.55;;;16.90;42.00;;;;;;5081949;28;20032;-68
2021/04/01 06:27:25;;;;;;;11.57;6.28;;;17.10;41.80;;;;;;5066051;28;20047;-70
2021/04/01 06:32:44;;;;;;;17.00;6.82;;;17.40;42.00;;;;;;5077251;28;20021;-68
2021/04/01 06:35:24;;;;;;;19.58;7.63;;;17.70;40.60;;;;;;5071514;28;20021;-69
2021/04/01 06:38:14;;;;;;;17.40;7.40;;;18.00;40.20;;;;;;5081727;28;20027;-70
2021/04/01 06:40:53;;;;;;;15.05;7.13;;;18.00;40.30;;;;;;5053069;28;20025;-70
2021/04/01 06:43:22;;;;;;;11.65;6.78;;;17.50;40.60;;;;;;5083692;28;20473;-71
2021/04/01 06:45:55;;;;;;;13.88;6.75;;;17.90;41.40;;;;;;5075637;28;20450;-69
2021/04/01 06:48:24;;;;;;;15.98;7.00;;;18.60;39.70;;;;;;5076483;28;20432;-70
2021/04/01 06:51:05;;;;;;;17.15;6.85;;;18.50;39.50;;;;;;5083663;28;20103;-71
2021/04/01 06:54:37;;;;;;;18.03;6.70;;;19.00;39.00;;;;;;5060860;28;20023;-69
2021/04/01 06:56:39;;;;;;;15.30;6.75;;;19.20;37.50;;;;;;5080345;28;20421;-67
2021/04/01 07:01:56;;;;;;;17.27;6.70;;;18.20;39.90;;;;;;5080964;28;20504;-74
2021/04/01 07:04:24;;;;;;;12.93;7.28;;;17.60;41.80;;;;;;5083144;28;20469;-74
2021/04/01 07:07:03;;;;;;;15.13;7.45;;;17.00;42.00;;;;;;5085287;28;20024;-73
2021/04/01 07:12:11;;;;;;;15.40;8.10;;;15.50;45.70;;;;;;5073266;28;20020;-74
2021/04/01 07:14:41;;;;;;;17.58;7.65;;;15.30;48.30;;;;;;5081276;28;20345;-74
2021/04/01 07:17:38;;;;;;;12.05;7.55;;;15.00;48.70;;;;;;5090469;28;20524;-73
2021/04/01 07:20:21;;;;;;;16.30;7.72;;;15.10;48.50;;;;;;5083141;28;20035;-72
2021/04/01 07:44:50;;;;;;;22.20;8.38;;;15.90;49.10;;;;;;5082580;28;20080;-72
2021/04/01 07:47:28;;;;;;;;;;;15.90;48.10;;;;;;5096019;28;20032;-72
2021/04/01 07:49:57;;;;;;;21.95;8.00;;;15.80;48.40;;;;;;5092784;28;19908;-73
2021/04/01 07:52:25;;;;;;;13.82;7.53;;;16.10;47.90;;;;;;5095165;28;20061;-73
2021/04/01 08:00:26;;;;;;;12.95;7.25;;;17.50;44.10;;;;;;5084140;28;20031;-72
2021/04/01 08:05:35;;;;;;;18.20;8.32;;;17.60;43.00;;;;;;5090085;28;20040;-74
2021/04/01 08:08:05;;;;;;;21.67;8.70;;;17.00;44.30;;;;;;5080862;28;20118;-69
2021/04/01 08:10:48;;;;;;;16.80;8.65;;;16.60;45.80;;;;;;5078860;28;20023;-73
2021/04/01 08:13:18;;;;;;;17.75;8.35;;;16.50;46.10;;;;;;5089719;28;20032;-72
2021/04/01 08:15:53;;;;;;;17.33;8.30;;;16.70;45.80;;;;;;5079238;28;20012;-73
2021/04/01 08:18:28;;;;;;;14.13;8.23;;;17.00;44.20;;;;;;5080588;28;20565;-72
2021/04/01 08:20:58;;;;;;;26.17;9.63;;;17.20;43.80;;;;;;5089259;28;20176;-73
2021/04/01 08:23:33;;;;;;;22.08;9.55;;;17.30;43.60;;;;;;5077037;28;20027;-74
2021/04/01 08:28:48;;;;;;;15.45;8.85;;;16.80;45.10;;;;;;5086115;28;20070;-72
2021/04/01 08:36:28;;;;;;;17.60;8.60;;;17.10;44.30;;;;;;5084289;28;20497;-73
2021/04/01 08:38:54;;;;;;;23.85;10.75;;;17.00;44.90;;;;;;5075724;28;20025;-73
2021/04/01 08:41:38;;;;;;;25.23;11.27;;;17.00;44.90;;;;;;5089217;28;20028;-72
2021/04/01 08:44:03;;;;;;;22.70;10.07;;;17.10;45.10;;;;;;5081357;28;20492;-72
2021/04/01 08:46:49;;;;;;;26.60;10.10;;;17.40;44.50;;;;;;5079866;28;20048;-74
2021/04/01 08:49:48;;;;;;;23.67;9.38;;;17.80;43.20;;;;;;5087603;28;20028;-74
2021/04/01 08:52:33;;;;;;;20.08;10.13;;;17.70;43.00;;;;;;5083119;28;20031;-75
2021/04/01 08:55:10;;;;;;;24.63;9.75;;;17.60;43.10;;;;;;5081367;28;20017;-69
2021/04/01 08:58:09;;;;;;;27.83;12.48;;;17.90;42.30;;;;;;5085452;28;20047;-70
2021/04/01 09:00:41;;;;;;;19.83;10.60;;;17.80;42.50;;;;;;5078888;28;20485;-68
2021/04/01 09:03:06;;;;;;;18.42;9.80;;;17.90;42.70;;;;;;5087368;28;20505;-70
2021/04/01 09:05:32;;;;;;;22.88;10.98;;;18.30;42.30;;;;;;5070160;28;20016;-71
2021/04/01 09:08:03;;;;;;;27.65;13.20;;;19.00;40.80;;;;;;5066828;28;20027;-71
2021/04/01 09:10:39;;;;;;;;;;;19.50;39.30;;;;;;5078330;28;20028;-70
2021/04/01 09:15:47;;;;;;;28.75;14.00;;;19.50;39.70;;;;;;5075035;28;20111;-71
2021/04/01 09:18:25;;;;;;;60.03;32.10;;;19.30;39.30;;;;;;5080660;28;20051;-70
2021/04/01 09:20:55;;;;;;;29.35;14.70;;;19.50;37.60;;;;;;5086617;28;20023;-69
2021/04/01 09:23:32;;;;;;;83.00;47.00;;;19.70;37.50;;;;;;5074993;28;20016;-70
2021/04/01 09:25:59;;;;;;;31.42;17.02;;;20.00;36.20;;;;;;5083663;28;20021;-70
2021/04/01 09:28:30;;;;;;;40.15;20.90;;;20.20;35.20;;;;;;5081907;28;20028;-70
2021/04/01 09:30:59;;;;;;;88.20;48.08;;;20.50;34.70;;;;;;5075479;28;20423;-70
2021/04/01 09:33:26;;;;;;;37.28;22.58;;;20.40;35.50;;;;;;5088031;28;20074;-71
2021/04/01 09:36:08;;;;;;;49.25;29.52;;;20.50;35.20;;;;;;5078308;28;20017;-71
2021/04/01 09:38:43;;;;;;;40.33;22.60;;;20.90;34.40;;;;;;5076862;28;20792;-70
2021/04/01 09:41:10;;;;;;;79.13;46.67;;;21.00;34.10;;;;;;5087932;28;20094;-71
2021/04/01 09:43:36;;;;;;;61.08;32.65;;;21.00;35.10;;;;;;5058148;28;20027;-71
2021/04/01 09:46:10;;;;;;;32.08;18.02;;;21.50;33.80;;;;;;5079462;28;20031;-69
2021/04/01 09:48:41;;;;;;;73.70;44.75;;;21.50;33.00;;;;;;5082938;28;20031;-71
2021/04/01 09:51:21;;;;;;;55.00;32.63;;;21.80;32.90;;;;;;5073664;28;20024;-71
2021/04/01 09:53:52;;;;;;;34.42;20.05;;;22.20;32.20;;;;;;5083682;28;20025;-71
2021/04/01 09:56:30;;;;;;;84.25;50.90;;;22.50;32.00;;;;;;5080996;28;20034;-71
2021/04/01 09:58:57;;;;;;;46.08;28.05;;;22.90;31.10;;;;;;5075324;28;20094;-71
2021/04/01 10:01:28;;;;;;;71.28;42.60;;;23.00;30.70;;;;;;5087677;28;20019;-69
2021/04/01 10:04:12;;;;;;;30.77;15.70;;;23.20;29.70;;;;;;5078521;28;20012;-70
2021/04/01 10:06:46;;;;;;;68.10;39.88;;;23.60;28.80;;;;;;5076471;28;20490;-69
2021/04/01 10:09:14;;;;;;;41.42;26.40;;;23.90;28.90;;;;;;5087817;28;20417;-68
2021/04/01 10:11:49;;;;;;;78.78;49.85;;;23.90;28.90;;;;;;5076947;28;20016;-69
2021/04/01 10:14:16;;;;;;;42.60;26.23;;;23.70;29.10;;;;;;5081079;28;20100;-69
2021/04/01 10:16:54;;;;;;;36.35;20.60;;;23.50;29.10;;;;;;5084445;28;20048;-68
2021/04/01 10:19:23;;;;;;;56.83;33.45;;;23.30;29.90;;;;;;5074285;28;20021;-69
2021/04/01 10:21:51;;;;;;;42.50;25.13;;;23.00;30.50;;;;;;5084237;28;20021;-69
2021/04/01 10:24:32;;;;;;;60.08;38.47;;;22.70;31.00;;;;;;5081105;28;20077;-68
2021/04/01 10:27:23;;;;;;;44.25;28.15;;;22.30;31.40;;;;;;5077447;28;20029;-69
2021/04/01 10:32:15;;;;;;;49.55;27.35;;;21.80;32.50;;;;;;5084714;28;20021;-68
2021/04/01 10:34:52;;;;;;;40.30;23.60;;;21.90;32.50;;;;;;5088471;28;20027;-68
2021/04/01 10:37:21;;;;;;;30.08;17.90;;;22.30;32.00;;;;;;5077346;28;20021;-69
2021/04/01 10:39:51;;;;;;;43.58;26.15;;;22.20;31.60;;;;;;5086748;28;20393;-67
2021/04/01 10:42:31;;;;;;;37.83;23.75;;;22.10;32.30;;;;;;5084919;28;20039;-68
2021/04/01 10:45:12;;;;;;;45.30;24.40;;;22.20;32.00;;;;;;5078414;28;20074;-68
2021/04/01 10:47:52;;;;;;;45.38;27.02;;;22.00;32.90;;;;;;5063858;28;20699;-68
2021/04/01 10:50:19;;;;;;;59.90;36.50;;;22.20;33.30;;;;;;5081915;28;20080;-68
2021/04/01 10:52:45;;;;;;;43.22;23.98;;;22.40;33.80;;;;;;5088774;28;20028;-68
2021/04/01 10:55:12;;;;;;;67.32;40.55;;;22.50;32.40;;;;;;5077718;28;20025;-68
2021/04/01 10:57:38;;;;;;;43.78;27.25;;;22.50;33.00;;;;;;5088477;28;20086;-69
2021/04/01 11:00:14;;;;;;;58.35;35.42;;;22.80;32.00;;;;;;5082840;28;20486;-68
2021/04/01 11:02:45;;;;;;;32.40;18.55;;;22.90;32.30;;;;;;5080227;28;20385;-68
2021/04/01 11:05:16;;;;;;;30.65;17.48;;;23.00;31.30;;;;;;5091038;28;20087;-67
2021/04/01 11:07:48;;;;;;;54.45;31.85;;;22.90;30.50;;;;;;5071427;28;20024;-67
2021/04/01 11:10:22;;;;;;;47.88;27.70;;;23.00;31.80;;;;;;5083819;28;20024;-67
2021/04/01 11:13:01;;;;;;;47.15;25.75;;;22.90;31.30;;;;;;5089417;28;20024;-69
2021/04/01 11:15:34;;;;;;;62.47;36.22;;;22.70;32.40;;;;;;5061973;28;20497;-70
2021/04/01 11:18:04;;;;;;;39.25;24.55;;;22.60;32.60;;;;;;5087112;28;20105;-69
2021/04/01 11:20:42;;;;;;;36.08;21.20;;;22.60;31.70;;;;;;5087732;28;20024;-68
2021/04/01 11:23:12;;;;;;;33.65;18.42;;;22.40;31.90;;;;;;5079247;28;20082;-68
2021/04/01 11:25:45;;;;;;;35.00;22.00;;;22.00;31.80;;;;;;5094606;28;20074;-68
2021/04/01 11:28:11;;;;;;;66.03;38.70;;;22.00;32.40;;;;;;5083786;28;20021;-67
2021/04/01 11:30:45;;;;;;;38.58;20.10;;;22.10;33.90;;;;;;5087064;28;20024;-68
2021/04/01 11:33:11;;;;;;;38.17;23.48;;;22.10;32.10;;;;;;5077206;28;20013;-68
2021/04/01 11:35:40;;;;;;;57.05;32.97;;;22.20;32.80;;;;;;5088468;28;20061;-69
2021/04/01 11:38:10;;;;;;;50.83;28.25;;;22.20;35.20;;;;;;5080193;28;20024;-68
2021/04/01 11:40:39;;;;;;;41.75;24.02;;;22.40;33.50;;;;;;5080172;28;20093;-69
2021/04/01 11:43:05;;;;;;;36.92;20.40;;;22.60;32.70;;;;;;5091100;28;20046;-68
2021/04/01 11:45:40;;;;;;;42.58;24.05;;;22.30;32.30;;;;;;5078241;28;20020;-69
2021/04/01 11:48:06;;;;;;;46.22;27.80;;;22.50;31.90;;;;;;5085747;28;20660;-68
2021/04/01 11:50:32;;;;;;;44.90;25.95;;;22.60;31.50;;;;;;5087284;28;20540;-69
2021/04/01 11:53:00;;;;;;;44.40;27.48;;;22.90;30.70;;;;;;5078649;28;20031;-70
2021/04/01 11:55:27;;;;;;;37.35;22.73;;;23.10;30.40;;;;;;5061482;28;20008;-69
2021/04/01 11:57:53;;;;;;;39.38;24.27;;;23.20;29.10;;;;;;5085366;28;20056;-68
2021/04/01 12:00:25;;;;;;;51.58;30.35;;;23.20;29.90;;;;;;5083823;28;20069;-68
2021/04/01 12:02:59;;;;;;;52.72;31.80;;;23.20;30.10;;;;;;5078177;28;20028;-69
2021/04/01 12:05:28;;;;;;;42.85;24.45;;;23.10;31.20;;;;;;5089762;28;20807;-68
2021/04/01 12:07:54;;;;;;;58.65;33.83;;;23.20;31.20;;;;;;5079625;28;20020;-66
2021/04/01 12:10:23;;;;;;;54.03;30.77;;;23.00;31.90;;;;;;5081273;28;20028;-68
2021/04/01 12:12:53;;;;;;;52.97;30.95;;;22.70;32.30;;;;;;5087634;28;20028;-68
2021/04/01 12:15:35;;;;;;;45.55;28.38;;;22.30;32.60;;;;;;5076235;28;20528;-68
2021/04/01 12:18:03;;;;;;;44.80;26.23;;;21.90;33.80;;;;;;5082452;28;20028;-68
2021/04/01 12:20:29;;;;;;;47.85;29.80;;;21.60;33.80;;;;;;5084501;28;20058;-71
2021/04/01 12:22:55;;;;;;;40.10;23.52;;;21.40;34.50;;;;;;5076969;28;20060;-72
2021/04/01 12:25:22;;;;;;;51.70;31.13;;;21.30;34.90;;;;;;5089042;28;20036;-70
2021/04/01 12:27:57;;;;;;;45.83;22.63;;;21.30;34.40;;;;;;5073578;28;20062;-71
2021/04/01 12:30:30;;;;;;;35.80;21.23;;;21.00;34.50;;;;;;5066253;28;20094;-70
2021/04/01 12:33:13;;;;;;;35.60;21.13;;;21.00;33.80;;;;;;5072779;28;20021;-68
2021/04/01 12:35:52;;;;;;;36.35;21.75;;;21.20;33.50;;;;;;5061606;28;20024;-71
2021/04/01 12:38:37;;;;;;;43.45;22.80;;;21.20;32.80;;;;;;5071100;28;20036;-71
2021/04/01 12:41:10;;;;;;;50.75;31.77;;;21.10;33.10;;;;;;5069566;28;20017;-67
2021/04/01 12:43:41;;;;;;;47.88;28.23;;;21.50;34.50;;;;;;5052233;28;20151;-71
2021/04/01 12:46:07;;;;;;;39.50;24.23;;;22.00;33.70;;;;;;5068525;28;20485;-71
2021/04/01 12:48:51;;;;;;;69.82;38.85;;;22.50;32.60;;;;;;5078489;28;20044;-70
2021/04/01 12:51:20;;;;;;;43.92;24.45;;;23.00;31.60;;;;;;5088668;28;20050;-71
2021/04/01 12:54:10;;;;;;;150.40;89.38;;;23.20;29.70;;;;;;5078514;28;20095;-70
2021/04/01 12:56:38;;;;;;;83.82;52.03;;;23.20;30.30;;;;;;5075308;28;20077;-70
2021/04/01 12:59:06;;;;;;;65.22;41.85;;;23.20;29.90;;;;;;5056171;28;20028;-69
2021/04/01 13:01:47;;;;;;;49.95;30.75;;;23.10;30.20;;;;;;5087626;28;20386;-69
2021/04/01 13:04:15;;;;;;;41.53;24.13;;;22.90;30.60;;;;;;5080550;28;20020;-70
2021/04/01 13:12:13;;;;;;;35.78;22.20;;;22.80;28.00;;;;;;5094807;28;20469;-68
2021/04/01 13:14:39;;;;;;;43.33;28.25;;;22.90;28.50;;;;;;5089488;28;20029;-69
2021/04/01 13:17:05;;;;;;;107.07;68.22;;;23.00;28.60;;;;;;5087460;28;20028;-69
2021/04/01 13:19:31;;;;;;;48.80;29.75;;;23.00;29.90;;;;;;5075882;28;20099;-70
2021/04/01 13:25:13;;;;;;;40.00;23.42;;;22.70;28.40;;;;;;5084881;28;20062;-71
2021/04/01 13:27:20;;;;;;;70.57;44.80;;;22.40;28.30;;;;;;5073257;28;20049;-68
2021/04/01 13:29:53;;;;;;;75.20;46.40;;;22.40;30.30;;;;;;5085232;28;20078;-69
2021/04/01 13:32:29;;;;;;;97.95;58.22;;;22.60;29.40;;;;;;5081910;28;20016;-70
2021/04/01 13:37:35;;;;;;;47.10;29.08;;;22.60;29.30;;;;;;5058197;28;20031;-70
2021/04/01 13:40:13;;;;;;;51.30;29.48;;;22.60;28.90;;;;;;5084168;28;20478;-70
2021/04/01 13:42:43;;;;;;;43.33;25.45;;;22.50;29.10;;;;;;5084900;28;20064;-71
2021/04/01 13:45:20;;;;;;;55.83;32.75;;;22.50;29.40;;;;;;5073510;28;20063;-70
2021/04/01 13:47:50;;;;;;;57.33;33.38;;;22.50;29.90;;;;;;5084322;28;20462;-71
2021/04/01 13:50:18;;;;;;;38.97;22.92;;;22.60;29.80;;;;;;5080305;28;20031;-70
2021/04/01 13:55:32;;;;;;;70.35;42.97;;;22.00;29.90;;;;;;5058947;28;20077;-71
2021/04/01 14:00:41;;;;;;;43.00;23.67;;;21.90;29.90;;;;;;5070947;28;20058;-70
2021/04/01 14:11:36;;;;;;;40.87;25.07;;;22.10;32.10;;;;;;5075774;28;20103;-71
2021/04/01 14:14:02;;;;;;;44.53;26.52;;;22.00;31.40;;;;;;5082666;28;20040;-70
2021/04/01 14:16:28;;;;;;;67.68;37.40;;;21.90;32.50;;;;;;5082173;28;20409;-70
2021/04/01 14:18:55;;;;;;;39.50;23.77;;;21.70;33.50;;;;;;5075186;28;20024;-70
2021/04/01 14:21:22;;;;;;;74.93;46.72;;;21.60;32.30;;;;;;5087406;28;20039;-70
2021/04/01 14:23:50;;;;;;;41.60;25.98;;;21.50;32.90;;;;;;5077140;28;20552;-71
2021/04/01 14:28:42;;;;;;;56.78;35.78;;;21.60;32.00;;;;;;5084203;28;20496;-72
2021/04/01 14:31:09;;;;;;;180.45;91.30;;;21.80;31.90;;;;;;5073952;28;20024;-70
2021/04/01 14:33:38;;;;;;;46.10;27.95;;;22.00;31.50;;;;;;5086163;28;20100;-70
2021/04/01 14:36:05;;;;;;;41.47;24.98;;;22.00;31.70;;;;;;5079041;28;20017;-70
2021/04/01 14:38:33;;;;;;;46.28;27.95;;;21.90;31.50;;;;;;5077948;28;20025;-70
2021/04/01 14:41:07;;;;;;;56.22;32.80;;;21.70;31.90;;;;;;5086704;28;20032;-70
2021/04/01 14:45:59;;;;;;;51.42;30.48;;;21.50;35.20;;;;;;5083049;28;20024;-68
2021/04/01 14:48:25;;;;;;;47.63;28.48;;;21.50;31.80;;;;;;5063288;28;20075;-71